createdAt,value
2022-11-23T00:02:16.646Z,1.38
2022-11-23T00:04:43.138Z,1.52
2022-11-23T00:07:09.682Z,1.60
2022-11-23T00:09:36.141Z,1.63
2022-11-23T00:12:02.624Z,1.50
2022-11-23T00:14:29.092Z,1.50
2022-11-23T00:16:55.561Z,1.45
2022-11-23T00:19:22.024Z,1.42
2022-11-23T00:21:48.452Z,1.30
2022-11-23T00:24:14.907Z,1.13
2022-11-23T00:26:41.375Z,1.50
2022-11-23T00:29:07.955Z,1.15
2022-11-23T00:31:34.452Z,1.10
2022-11-23T00:34:00.972Z,1.27
2022-11-23T00:36:28.024Z,0.90
2022-11-23T00:38:54.746Z,1.08
2022-11-23T00:41:22.141Z,1.30
2022-11-23T00:43:48.651Z,1.00
2022-11-23T00:46:16.232Z,1.08
2022-11-23T00:48:43.416Z,1.13
2022-11-23T00:51:10.741Z,1.17
2022-11-23T00:53:38.673Z,1.20
2022-11-23T00:56:05.668Z,0.95
2022-11-23T00:58:34.560Z,1.00
2022-11-23T01:01:19.591Z,1.30
2022-11-23T01:03:47.786Z,1.10
2022-11-23T01:06:18.658Z,1.10
2022-11-23T01:08:51.932Z,1.13
2022-11-23T01:11:18.883Z,0.90
2022-11-23T01:13:45.493Z,1.33
2022-11-23T01:16:22.427Z,0.85
2022-11-23T01:18:57.201Z,0.90
2022-11-23T01:21:24.539Z,0.90
2022-11-23T01:23:51.068Z,1.10
2022-11-23T01:26:17.682Z,1.00
2022-11-23T01:28:44.158Z,1.10
2022-11-23T01:31:15.348Z,1.23
2022-11-23T01:33:44.338Z,0.93
2022-11-23T01:36:12.117Z,0.88
2022-11-23T01:38:38.726Z,1.05
2022-11-23T01:41:06.099Z,1.00
2022-11-23T01:43:32.550Z,0.95
2022-11-23T01:45:59.692Z,1.00
2022-11-23T01:48:32.447Z,0.85
2022-11-23T01:51:01.013Z,0.82
2022-11-23T01:53:28.374Z,0.85
2022-11-23T01:55:57.375Z,0.95
2022-11-23T01:58:25.472Z,1.08
2022-11-23T02:00:52.042Z,0.90
2022-11-23T02:03:18.963Z,1.20
2022-11-23T02:05:48.454Z,0.93
2022-11-23T02:08:20.234Z,0.80
2022-11-23T02:10:47.503Z,0.82
2022-11-23T02:13:14.544Z,0.82
2022-11-23T02:15:41.159Z,1.05
2022-11-23T02:18:11.941Z,1.00
2022-11-23T02:20:38.826Z,1.13
2022-11-23T02:23:12.336Z,1.10
2022-11-23T02:25:44.333Z,1.10
2022-11-23T02:28:16.134Z,1.10
2022-11-23T02:30:44.015Z,0.90
2022-11-23T02:33:10.442Z,0.95
2022-11-23T02:35:47.748Z,1.10
2022-11-23T02:38:14.274Z,1.10
2022-11-23T02:40:42.598Z,1.05
2022-11-23T02:43:09.084Z,1.15
2022-11-23T02:45:46.670Z,0.95
2022-11-23T02:48:13.157Z,1.20
2022-11-23T02:50:39.573Z,1.25
2022-11-23T02:53:06.963Z,1.20
2022-11-23T02:55:33.448Z,1.17
2022-11-23T02:58:00.961Z,1.40
2022-11-23T03:00:28.368Z,1.40
2022-11-23T03:02:54.865Z,1.90
2022-11-23T03:05:21.338Z,1.40
2022-11-23T03:07:51.653Z,1.77
2022-11-23T03:10:19.116Z,1.70
2022-11-23T03:12:47.257Z,1.50
2022-11-23T03:15:14.064Z,1.48
2022-11-23T03:17:41.114Z,1.70
2022-11-23T03:20:11.301Z,1.80
2022-11-23T03:22:41.821Z,1.58
2022-11-23T03:25:10.311Z,1.75
2022-11-23T03:27:38.663Z,1.55
2022-11-23T03:30:06.204Z,1.80
2022-11-23T03:32:34.712Z,1.85
2022-11-23T03:35:01.580Z,2.00
2022-11-23T03:37:28.733Z,1.90
2022-11-23T03:39:55.617Z,1.60
2022-11-23T03:42:22.217Z,1.55
2022-11-23T03:44:48.805Z,1.77
2022-11-23T03:47:15.267Z,1.90
2022-11-23T03:49:41.705Z,1.73
2022-11-23T03:52:09.465Z,2.20
2022-11-23T03:54:36.021Z,2.13
2022-11-23T03:57:03.217Z,2.13
2022-11-23T03:59:31.896Z,1.67
2022-11-23T04:01:58.693Z,2.08
2022-11-23T04:04:27.585Z,2.40
2022-11-23T04:07:16.881Z,1.77
2022-11-23T04:09:49.866Z,1.98
2022-11-23T04:12:33.610Z,2.78
2022-11-23T04:15:00.088Z,2.10
2022-11-23T04:17:27.377Z,2.40
2022-11-23T04:19:53.839Z,2.28
2022-11-23T04:22:20.300Z,2.28
2022-11-23T04:24:47.239Z,2.10
2022-11-23T04:27:13.676Z,2.42
2022-11-23T04:29:42.088Z,2.83
2022-11-23T04:32:09.229Z,2.33
2022-11-23T04:34:37.192Z,2.35
2022-11-23T04:37:07.849Z,2.50
2022-11-23T04:39:38.741Z,2.20
2022-11-23T04:42:11.578Z,2.45
2022-11-23T04:44:38.412Z,2.63
2022-11-23T04:47:06.697Z,2.15
2022-11-23T04:49:36.082Z,2.08
2022-11-23T04:52:03.487Z,2.58
2022-11-23T04:54:35.110Z,2.92
2022-11-23T04:57:04.748Z,2.70
2022-11-23T04:59:32.711Z,2.03
2022-11-23T05:02:00.639Z,2.53
2022-11-23T05:04:41.521Z,2.53
2022-11-23T05:07:08.527Z,2.35
2022-11-23T05:09:43.335Z,2.33
2022-11-23T05:12:15.913Z,2.28
2022-11-23T05:14:43.497Z,2.30
2022-11-23T05:17:13.242Z,2.10
2022-11-23T05:19:41.339Z,2.10
2022-11-23T05:22:08.423Z,2.40
2022-11-23T05:24:36.992Z,2.38
2022-11-23T05:27:18.311Z,2.58
2022-11-23T05:29:46.628Z,2.15
2022-11-23T05:32:14.455Z,4.40
2022-11-23T05:34:42.075Z,5.53
2022-11-23T05:37:10.666Z,6.22
2022-11-23T05:39:44.945Z,5.28
2022-11-23T05:42:14.955Z,6.20
2022-11-23T05:44:42.572Z,3.97
2022-11-23T05:47:17.527Z,3.75
2022-11-23T05:49:44.141Z,3.78
2022-11-23T05:52:13.293Z,3.10
2022-11-23T05:54:40.234Z,2.88
2022-11-23T05:57:12.439Z,3.25
2022-11-23T05:59:40.575Z,2.60
2022-11-23T06:02:09.203Z,2.40
2022-11-23T06:04:37.212Z,3.17
2022-11-23T06:07:07.135Z,3.22
2022-11-23T06:09:52.637Z,3.13
2022-11-23T06:12:19.214Z,2.47
2022-11-23T06:14:47.590Z,2.50
2022-11-23T06:17:17.360Z,2.38
2022-11-23T06:19:48.806Z,2.78
2022-11-23T06:22:15.497Z,3.17
2022-11-23T06:25:04.718Z,3.00
2022-11-23T06:27:34.343Z,2.28
2022-11-23T06:30:04.943Z,2.90
2022-11-23T06:32:34.377Z,3.15
2022-11-23T06:35:01.403Z,2.60
2022-11-23T06:37:31.367Z,3.30
2022-11-23T06:39:57.843Z,2.60
2022-11-23T06:42:41.066Z,2.53
2022-11-23T06:45:30.458Z,3.15
2022-11-23T06:48:01.273Z,2.78
2022-11-23T06:50:28.173Z,3.35
2022-11-23T06:52:56.469Z,3.17
2022-11-23T06:55:32.041Z,3.28
2022-11-23T06:58:01.489Z,2.45
2022-11-23T07:00:28.670Z,2.67
2022-11-23T07:02:56.065Z,2.45
2022-11-23T07:05:24.052Z,2.97
2022-11-23T07:07:51.274Z,2.45
2022-11-23T07:10:25.761Z,2.00
2022-11-23T07:13:02.806Z,2.22
2022-11-23T07:15:29.609Z,2.90
2022-11-23T07:17:56.226Z,2.47
2022-11-23T07:20:24.134Z,2.47
2022-11-23T07:23:20.201Z,1.95
2022-11-23T07:25:47.351Z,1.92
2022-11-23T07:28:14.613Z,2.33
2022-11-23T07:30:41.593Z,1.98
2022-11-23T07:33:10.177Z,1.90
2022-11-23T07:35:38.992Z,2.30
2022-11-23T07:38:08.077Z,2.67
2022-11-23T07:40:38.245Z,1.95
2022-11-23T07:43:10.778Z,2.75
2022-11-23T07:45:39.487Z,2.30
2022-11-23T07:48:08.963Z,1.88
2022-11-23T07:50:35.875Z,2.00
2022-11-23T07:53:03.011Z,2.13
2022-11-23T07:55:30.752Z,2.42
2022-11-23T07:57:57.599Z,2.10
2022-11-23T08:00:25.328Z,2.30
2022-11-23T08:03:25.640Z,2.25
2022-11-23T08:05:38.417Z,2.40
2022-11-23T08:08:05.154Z,2.15
2022-11-23T08:10:32.087Z,2.33
2022-11-23T08:13:03.056Z,2.92
2022-11-23T08:15:29.624Z,2.35
2022-11-23T08:17:56.624Z,3.35
2022-11-23T08:20:23.409Z,2.72
2022-11-23T08:22:49.961Z,2.38
2022-11-23T08:25:16.866Z,3.03
2022-11-23T08:27:43.368Z,2.72
2022-11-23T08:30:10.473Z,2.80
2022-11-23T08:32:36.977Z,2.67
2022-11-23T08:35:03.585Z,2.78
2022-11-23T08:37:29.994Z,2.80
2022-11-23T08:39:56.456Z,2.78
2022-11-23T08:42:23.103Z,3.08
2022-11-23T08:44:49.612Z,2.83
2022-11-23T08:47:16.063Z,2.28
2022-11-23T08:49:42.632Z,2.90
2022-11-23T08:52:09.185Z,3.38
2022-11-23T08:54:35.686Z,3.10
2022-11-23T08:57:02.279Z,2.22
2022-11-23T08:59:28.826Z,2.78
2022-11-23T09:01:55.361Z,2.38
2022-11-23T09:04:22.228Z,2.75
2022-11-23T09:06:48.773Z,2.58
2022-11-23T09:09:15.272Z,2.70
2022-11-23T09:11:41.735Z,3.03
2022-11-23T09:14:08.248Z,2.90
2022-11-23T09:16:34.755Z,3.17
2022-11-23T09:19:01.280Z,3.28
2022-11-23T09:21:31.020Z,2.67
2022-11-23T09:23:57.464Z,3.13
2022-11-23T09:26:24.121Z,2.90
2022-11-23T09:28:51.063Z,2.67
2022-11-23T09:31:17.554Z,2.85
2022-11-23T09:33:44.070Z,2.60
2022-11-23T09:36:10.522Z,2.75
2022-11-23T09:38:56.581Z,3.15
2022-11-23T09:41:41.828Z,2.65
2022-11-23T09:44:16.307Z,2.92
2022-11-23T09:46:51.653Z,2.72
2022-11-23T09:49:22.439Z,2.67
2022-11-23T09:51:50.544Z,2.90
2022-11-23T09:54:23.348Z,3.30
2022-11-23T09:56:51.333Z,3.38
2022-11-23T09:59:30.046Z,2.28
2022-11-23T10:01:57.419Z,2.53
2022-11-23T10:04:24.380Z,2.50
2022-11-23T10:06:56.474Z,2.70
2022-11-23T10:09:37.015Z,2.70
2022-11-23T10:12:22.053Z,3.25
2022-11-23T10:14:48.563Z,2.55
2022-11-23T10:17:15.001Z,2.67
2022-11-23T10:19:44.594Z,2.65
2022-11-23T10:22:24.506Z,2.60
2022-11-23T10:24:52.317Z,2.47
2022-11-23T10:27:23.548Z,3.08
2022-11-23T10:29:52.490Z,2.90
2022-11-23T10:32:24.925Z,2.65
2022-11-23T10:34:58.357Z,2.47
2022-11-23T10:37:25.051Z,3.33
2022-11-23T10:39:51.695Z,2.50
2022-11-23T10:42:24.486Z,3.10
2022-11-23T10:44:51.801Z,2.42
2022-11-23T10:47:37.988Z,2.75
2022-11-23T10:50:19.193Z,2.50
2022-11-23T10:52:53.082Z,2.30
2022-11-23T10:55:22.478Z,2.10
2022-11-23T10:57:49.096Z,1.98
2022-11-23T11:00:17.201Z,3.10
2022-11-23T11:02:45.248Z,2.55
2022-11-23T11:05:13.241Z,2.10
2022-11-23T11:07:39.909Z,2.53
2022-11-23T11:10:06.723Z,2.88
2022-11-23T11:12:34.204Z,1.90
2022-11-23T11:15:11.996Z,2.60
2022-11-23T11:17:39.711Z,2.38
2022-11-23T11:20:25.034Z,2.47
2022-11-23T11:22:51.662Z,2.30
2022-11-23T11:25:27.181Z,2.10
2022-11-23T11:27:57.681Z,2.10
2022-11-23T11:30:28.543Z,2.05
2022-11-23T11:33:16.021Z,2.28
2022-11-23T11:35:47.801Z,1.98
2022-11-23T11:38:20.450Z,2.20
2022-11-23T11:40:49.908Z,1.88
2022-11-23T11:43:29.287Z,1.92
2022-11-23T11:48:54.615Z,1.90
2022-11-23T11:51:27.912Z,1.50
2022-11-23T11:54:00.301Z,1.90
2022-11-23T11:56:43.616Z,2.05
2022-11-23T11:59:22.050Z,2.08
2022-11-23T12:01:55.238Z,2.88
2022-11-23T12:04:41.559Z,2.30
2022-11-23T12:07:14.238Z,2.00
2022-11-23T12:09:42.521Z,2.22
2022-11-23T12:12:13.083Z,1.63
2022-11-23T12:14:39.646Z,1.58
2022-11-23T12:17:35.129Z,1.80
2022-11-23T12:20:16.279Z,1.75
2022-11-23T12:22:53.823Z,1.88
2022-11-23T12:25:36.763Z,1.85
2022-11-23T12:28:21.796Z,1.77
2022-11-23T12:31:06.798Z,1.60
2022-11-23T12:36:49.281Z,1.60
2022-11-23T12:39:15.937Z,1.92
2022-11-23T12:41:51.235Z,1.80
2022-11-23T12:44:23.879Z,1.83
2022-11-23T12:46:57.482Z,2.03
2022-11-23T12:49:39.205Z,2.00
2022-11-23T12:52:24.714Z,1.90
2022-11-23T12:54:54.192Z,1.60
2022-11-23T12:57:22.967Z,1.95
2022-11-23T12:59:52.289Z,1.95
2022-11-23T13:02:30.375Z,1.80
2022-11-23T13:05:20.202Z,2.42
2022-11-23T13:07:58.051Z,2.22
2022-11-23T13:10:36.439Z,1.85
2022-11-23T13:13:16.269Z,2.03
2022-11-23T13:15:49.116Z,1.98
2022-11-23T13:18:27.726Z,1.70
2022-11-23T13:21:09.646Z,1.65
2022-11-23T13:23:39.648Z,1.85
2022-11-23T13:26:35.613Z,1.73
2022-11-23T13:29:22.383Z,1.70
2022-11-23T13:31:48.984Z,1.52
2022-11-23T13:34:34.736Z,1.73
2022-11-23T13:37:16.844Z,2.00
2022-11-23T13:39:58.905Z,1.67
2022-11-23T13:42:26.675Z,1.75
2022-11-23T13:45:16.422Z,1.63
2022-11-23T13:48:05.458Z,1.55
2022-11-23T13:50:32.500Z,2.00
2022-11-23T13:53:00.126Z,1.77
2022-11-23T13:55:29.510Z,1.88
2022-11-23T13:58:28.588Z,1.85
2022-11-23T14:00:58.652Z,2.35
2022-11-23T14:03:44.085Z,2.22
2022-11-23T14:06:20.338Z,2.28
2022-11-23T14:08:47.473Z,2.35
2022-11-23T14:11:15.889Z,2.03
2022-11-23T14:13:47.459Z,2.25
2022-11-23T14:16:16.754Z,2.10
2022-11-23T14:18:43.247Z,2.38
2022-11-23T14:21:18.841Z,2.08
2022-11-23T14:23:45.373Z,2.80
2022-11-23T14:26:27.386Z,2.30
2022-11-23T14:29:04.025Z,2.70
2022-11-23T14:31:48.829Z,2.83
2022-11-23T14:34:15.867Z,2.30
2022-11-23T14:36:48.460Z,2.30
2022-11-23T14:39:21.388Z,2.80
2022-11-23T14:41:52.575Z,3.05
2022-11-23T14:44:23.286Z,2.35
2022-11-23T14:47:05.998Z,5.00
2022-11-23T14:49:32.559Z,2.67
2022-11-23T14:51:59.737Z,2.60
2022-11-23T14:54:26.432Z,2.53
2022-11-23T14:56:54.441Z,2.78
2022-11-23T14:59:28.424Z,3.65
2022-11-23T15:02:00.000Z,3.08
2022-11-23T15:04:29.391Z,2.65
2022-11-23T15:06:58.723Z,3.17
2022-11-23T15:09:44.014Z,3.10
2022-11-23T15:12:40.285Z,3.35
2022-11-23T15:15:20.881Z,2.95
2022-11-23T15:17:55.300Z,2.65
2022-11-23T15:20:23.645Z,2.97
2022-11-23T15:22:50.508Z,2.58
2022-11-23T15:25:19.772Z,2.70
2022-11-23T15:27:49.006Z,3.63
2022-11-23T15:30:19.218Z,4.25
2022-11-23T15:32:56.759Z,3.00
2022-11-23T15:35:28.340Z,3.13
2022-11-23T15:37:55.767Z,3.40
2022-11-23T15:40:24.257Z,4.35
2022-11-23T15:42:51.672Z,3.88
2022-11-23T15:45:38.449Z,5.05
2022-11-23T15:48:11.723Z,5.25
2022-11-23T15:51:01.486Z,6.00
2022-11-23T15:53:29.401Z,7.40
2022-11-23T15:55:59.385Z,5.90
2022-11-23T15:58:25.925Z,5.40
2022-11-23T16:01:06.814Z,5.05
2022-11-23T16:03:35.749Z,5.00
2022-11-23T16:06:29.009Z,5.50
2022-11-23T16:08:59.106Z,4.60
2022-11-23T16:11:30.934Z,5.78
2022-11-23T16:14:14.959Z,5.85
2022-11-23T16:16:45.825Z,5.38
2022-11-23T16:19:28.091Z,4.32
2022-11-23T16:22:01.742Z,5.63
2022-11-23T16:24:29.461Z,4.30
2022-11-23T16:26:56.139Z,5.05
2022-11-23T16:29:24.613Z,6.40
2022-11-23T16:31:52.602Z,5.68
2022-11-23T16:34:19.677Z,5.15
2022-11-23T16:36:46.501Z,5.57
2022-11-23T16:39:13.176Z,5.93
2022-11-23T16:41:39.962Z,5.47
2022-11-23T16:44:06.988Z,8.23
2022-11-23T16:46:33.661Z,6.57
2022-11-23T16:49:00.665Z,5.55
2022-11-23T16:51:27.992Z,5.97
2022-11-23T16:56:42.495Z,9.77
2022-11-23T16:59:16.584Z,8.07
2022-11-23T17:01:45.816Z,6.13
2022-11-23T17:04:14.127Z,7.93
2022-11-23T17:06:42.800Z,8.38
2022-11-23T17:09:10.183Z,6.93
2022-11-23T17:11:38.410Z,7.70
2022-11-23T17:14:05.887Z,6.95
2022-11-23T17:16:34.274Z,8.45
2022-11-23T17:19:00.833Z,11.48
2022-11-23T17:21:27.399Z,9.65
2022-11-23T17:23:55.336Z,9.57
2022-11-23T17:26:33.951Z,8.77
2022-11-23T17:29:01.360Z,11.05
2022-11-23T17:31:28.183Z,9.88
2022-11-23T17:33:54.878Z,9.45
2022-11-23T17:36:21.443Z,7.32
2022-11-23T17:38:49.449Z,6.43
2022-11-23T17:41:16.001Z,6.47
2022-11-23T17:43:42.553Z,8.93
2022-11-23T17:46:15.061Z,12.15
2022-11-23T17:48:41.749Z,8.25
2022-11-23T17:51:09.813Z,7.10
2022-11-23T17:53:36.351Z,6.40
2022-11-23T17:56:03.456Z,6.43
2022-11-23T17:58:30.026Z,4.45
2022-11-23T18:00:56.516Z,5.65
2022-11-23T18:03:23.061Z,13.27
2022-11-23T18:05:49.634Z,12.45
2022-11-23T18:08:16.188Z,10.40
2022-11-23T18:10:42.710Z,9.15
2022-11-23T18:13:09.198Z,10.52
2022-11-23T18:15:36.048Z,8.10
2022-11-23T18:18:04.805Z,8.05
2022-11-23T18:20:31.538Z,10.07
2022-11-23T18:22:58.119Z,9.32
2022-11-23T18:25:24.979Z,5.03
2022-11-23T18:27:51.427Z,9.13
2022-11-23T18:30:18.027Z,5.15
2022-11-23T18:32:44.514Z,4.22
2022-11-23T18:35:11.052Z,3.80
2022-11-23T18:37:37.492Z,4.88
2022-11-23T18:40:04.236Z,4.38
2022-11-23T18:42:31.019Z,5.70
2022-11-23T18:44:57.673Z,4.90
2022-11-23T18:47:24.396Z,5.50
2022-11-23T18:49:53.098Z,6.55
2022-11-23T18:52:19.555Z,6.57
2022-11-23T18:54:46.129Z,6.95
2022-11-23T18:57:16.703Z,7.43
2022-11-23T18:59:57.860Z,10.27
2022-11-23T19:02:25.457Z,7.70
2022-11-23T19:04:52.153Z,8.93
2022-11-23T19:07:22.197Z,15.05
2022-11-23T19:09:53.367Z,11.48
2022-11-23T19:12:19.922Z,15.68
2022-11-23T19:14:49.812Z,8.82
2022-11-23T19:17:17.017Z,14.27
2022-11-23T19:19:43.481Z,12.40
2022-11-23T19:22:09.927Z,7.38
2022-11-23T19:24:36.387Z,9.20
2022-11-23T19:27:02.884Z,9.25
2022-11-23T19:29:29.403Z,10.43
2022-11-23T19:31:56.356Z,11.63
2022-11-23T19:34:23.277Z,11.95
2022-11-23T19:36:49.894Z,8.52
2022-11-23T19:39:16.443Z,11.50
2022-11-23T19:41:43.013Z,11.60
2022-11-23T19:44:09.951Z,11.20
2022-11-23T19:46:36.457Z,9.68
2022-11-23T19:49:04.698Z,9.95
2022-11-23T19:51:31.232Z,15.23
2022-11-23T19:53:58.018Z,7.90
2022-11-23T19:56:25.699Z,9.50
2022-11-23T19:58:53.076Z,7.30
2022-11-23T20:01:21.026Z,11.38
2022-11-23T20:03:48.869Z,10.65
2022-11-23T20:06:19.113Z,9.27
2022-11-23T20:08:45.809Z,20.50
2022-11-23T20:11:16.592Z,22.00
2022-11-23T20:13:43.494Z,16.15
2022-11-23T20:16:12.590Z,10.32
2022-11-23T20:18:39.619Z,9.30
2022-11-23T20:21:16.682Z,9.27
2022-11-23T20:23:43.756Z,12.50
2022-11-23T20:26:14.407Z,9.38
2022-11-23T20:28:41.422Z,7.13
2022-11-23T20:31:09.859Z,15.20
2022-11-23T20:33:37.210Z,7.97
2022-11-23T20:36:07.205Z,10.63
2022-11-23T20:38:36.033Z,14.38
2022-11-23T20:41:10.360Z,8.75
2022-11-23T20:43:36.800Z,13.30
2022-11-23T20:46:03.370Z,9.25
2022-11-23T20:48:29.934Z,9.18
2022-11-23T20:50:56.674Z,12.57
2022-11-23T20:53:23.141Z,10.90
2022-11-23T20:55:49.587Z,11.82
2022-11-23T20:58:16.866Z,10.73
2022-11-23T21:00:47.279Z,10.45
2022-11-23T21:03:16.736Z,13.57
2022-11-23T21:05:43.236Z,16.45
2022-11-23T21:08:20.561Z,27.75
2022-11-23T21:11:09.605Z,14.18
2022-11-23T21:13:54.777Z,13.82
2022-11-23T21:16:21.539Z,15.13
2022-11-23T21:18:48.108Z,14.90
2022-11-23T21:21:14.671Z,19.27
2022-11-23T21:23:41.137Z,14.30
2022-11-23T21:26:07.689Z,13.38
2022-11-23T21:28:34.331Z,16.55
2022-11-23T21:31:09.827Z,12.98
2022-11-23T21:33:36.967Z,12.27
2022-11-23T21:36:03.903Z,14.75
2022-11-23T21:38:35.139Z,11.32
2022-11-23T21:41:02.971Z,13.25
2022-11-23T21:43:31.229Z,19.13
2022-11-23T21:45:58.378Z,20.05
2022-11-23T21:48:24.886Z,14.63
2022-11-23T21:51:04.662Z,15.63
2022-11-23T21:53:31.620Z,13.82
2022-11-23T21:56:02.336Z,12.43
2022-11-23T21:58:29.114Z,16.63
2022-11-23T22:01:02.035Z,18.52
2022-11-23T22:03:28.507Z,16.73
2022-11-23T22:05:55.912Z,19.42
2022-11-23T22:08:30.043Z,19.00
2022-11-23T22:10:56.718Z,14.85
2022-11-23T22:13:23.341Z,17.33
2022-11-23T22:15:49.925Z,27.10
2022-11-23T22:18:16.383Z,27.73
2022-11-23T22:20:43.055Z,14.05
2022-11-23T22:23:10.079Z,14.63
2022-11-23T22:25:36.630Z,11.45
2022-11-23T22:28:03.301Z,11.88
2022-11-23T22:30:29.911Z,11.02
2022-11-23T22:32:57.113Z,12.00
2022-11-23T22:35:23.781Z,14.25
2022-11-23T22:37:50.322Z,10.88
2022-11-23T22:40:16.800Z,12.88
2022-11-23T22:42:43.320Z,12.35
2022-11-23T22:45:09.761Z,14.05
2022-11-23T22:47:39.199Z,14.27
2022-11-23T22:50:05.930Z,12.85
2022-11-23T22:52:32.421Z,18.25
2022-11-23T22:54:58.876Z,14.50
2022-11-23T22:57:25.323Z,16.20
2022-11-23T22:59:53.157Z,15.05
2022-11-23T23:02:20.034Z,15.75
2022-11-23T23:04:46.829Z,18.30
2022-11-23T23:07:13.368Z,17.33
2022-11-23T23:09:39.928Z,12.60
2022-11-23T23:12:06.582Z,13.20
2022-11-23T23:14:33.520Z,16.52
2022-11-23T23:17:00.083Z,14.07
2022-11-23T23:19:26.720Z,13.20
2022-11-23T23:21:53.224Z,17.38
2022-11-23T23:24:20.465Z,12.80
2022-11-23T23:26:46.994Z,12.32
2022-11-23T23:29:13.633Z,11.68
2022-11-23T23:31:40.212Z,13.40
2022-11-23T23:34:06.812Z,10.30
2022-11-23T23:36:35.546Z,10.68
2022-11-23T23:39:05.225Z,13.27
2022-11-23T23:41:31.734Z,12.32
2022-11-23T23:43:58.208Z,16.08
2022-11-23T23:46:24.669Z,11.07
2022-11-23T23:48:51.175Z,12.88
2022-11-23T23:51:19.214Z,9.65
2022-11-23T23:53:46.281Z,10.15
2022-11-23T23:56:17.086Z,12.00
2022-11-23T23:58:43.945Z,15.07
